createdAt,value
2023-02-19T00:01:27.789Z,22.13
2023-02-19T00:04:30.865Z,29.58
2023-02-19T00:07:33.867Z,21.70
2023-02-19T00:10:36.797Z,46.53
2023-02-19T00:13:42.173Z,49.97
2023-02-19T00:16:45.477Z,64.18
2023-02-19T00:19:49.020Z,32.65
2023-02-19T00:22:52.822Z,42.85
2023-02-19T00:26:00.981Z,14.55
2023-02-19T00:29:06.589Z,38.85
2023-02-19T00:32:09.832Z,14.13
2023-02-19T00:35:12.838Z,5.15
2023-02-19T00:38:16.504Z,12.70
2023-02-19T00:41:21.430Z,33.77
2023-02-19T00:44:24.890Z,25.40
2023-02-19T00:47:28.476Z,17.65
2023-02-19T00:50:32.533Z,30.70
2023-02-19T00:53:36.125Z,25.48
2023-02-19T00:56:40.358Z,26.25
2023-02-19T00:59:44.030Z,28.90
2023-02-19T01:02:47.673Z,55.43
2023-02-19T01:05:51.746Z,82.45
2023-02-19T01:08:55.743Z,68.90
2023-02-19T01:11:59.488Z,38.53
2023-02-19T01:15:02.688Z,60.20
2023-02-19T01:18:06.732Z,72.53
2023-02-19T01:21:15.681Z,63.63
2023-02-19T01:24:18.887Z,41.95
2023-02-19T01:27:21.796Z,66.75
2023-02-19T01:30:24.839Z,75.55
2023-02-19T01:33:28.228Z,53.67
2023-02-19T01:36:35.119Z,67.18
2023-02-19T01:39:39.831Z,76.50
2023-02-19T01:42:45.451Z,83.67
2023-02-19T01:45:49.052Z,74.15
2023-02-19T01:48:53.125Z,88.15
2023-02-19T01:52:08.872Z,84.28
2023-02-19T01:55:14.740Z,71.10
2023-02-19T01:58:18.800Z,58.00
2023-02-19T02:01:22.685Z,66.13
2023-02-19T02:04:26.665Z,58.53
2023-02-19T02:07:48.251Z,38.97
2023-02-19T02:10:53.040Z,42.35
2023-02-19T02:13:58.250Z,42.67
2023-02-19T02:17:21.610Z,42.00
2023-02-19T02:21:15.415Z,39.90
2023-02-19T02:24:41.823Z,54.78
2023-02-19T02:27:57.404Z,61.83
2023-02-19T02:31:23.785Z,34.60
2023-02-19T02:34:38.723Z,31.70
2023-02-19T02:37:44.077Z,33.40
2023-02-19T02:40:49.470Z,32.85
2023-02-19T02:43:53.038Z,38.78
2023-02-19T02:46:56.104Z,30.90
2023-02-19T02:50:06.617Z,45.58
2023-02-19T02:53:40.053Z,34.88
2023-02-19T02:56:47.222Z,23.60
2023-02-19T02:59:51.445Z,32.95
2023-02-19T03:02:57.826Z,30.73
2023-02-19T03:06:05.630Z,25.98
2023-02-19T03:09:33.423Z,27.50
2023-02-19T03:12:59.619Z,35.97
2023-02-19T03:16:27.811Z,37.50
2023-02-19T03:19:36.133Z,35.85
2023-02-19T03:22:41.543Z,40.17
2023-02-19T03:26:03.629Z,39.15
2023-02-19T03:29:26.883Z,31.73
2023-02-19T03:33:08.647Z,30.90
2023-02-19T03:36:19.497Z,24.83
2023-02-19T03:39:24.339Z,25.88
2023-02-19T03:43:12.864Z,28.90
2023-02-19T03:46:36.960Z,18.60
2023-02-19T03:49:57.601Z,21.20
2023-02-19T03:53:24.979Z,16.90
2023-02-19T03:56:39.777Z,14.68
2023-02-19T03:59:53.970Z,16.80
2023-02-19T04:03:03.404Z,13.32
2023-02-19T04:06:14.914Z,19.45
2023-02-19T04:09:19.530Z,21.40
2023-02-19T04:12:31.692Z,31.55
2023-02-19T04:15:37.891Z,20.88
2023-02-19T04:18:44.872Z,16.58
2023-02-19T04:21:49.409Z,16.40
2023-02-19T04:24:55.909Z,16.65
2023-02-19T04:27:59.598Z,15.70
2023-02-19T04:31:03.507Z,17.83
2023-02-19T04:34:07.239Z,17.88
2023-02-19T04:37:10.813Z,24.13
2023-02-19T04:40:14.035Z,27.52
2023-02-19T04:43:17.110Z,15.93
2023-02-19T04:46:21.140Z,16.95
2023-02-19T04:49:24.829Z,13.13
2023-02-19T04:52:28.195Z,14.63
2023-02-19T04:55:31.116Z,14.50
2023-02-19T04:58:35.477Z,14.77
2023-02-19T05:01:38.394Z,18.48
2023-02-19T05:04:42.430Z,17.08
2023-02-19T05:07:45.416Z,12.70
2023-02-19T05:10:49.147Z,21.75
2023-02-19T05:13:52.126Z,12.20
2023-02-19T05:16:55.614Z,12.60
2023-02-19T05:19:58.584Z,15.27
2023-02-19T05:23:01.919Z,20.83
2023-02-19T05:26:18.435Z,23.90
2023-02-19T05:29:22.001Z,24.75
2023-02-19T05:32:50.322Z,17.60
2023-02-19T05:35:56.645Z,14.33
2023-02-19T05:39:00.438Z,16.80
2023-02-19T05:42:04.589Z,15.15
2023-02-19T05:45:08.051Z,13.73
2023-02-19T05:48:12.191Z,10.63
2023-02-19T05:51:19.014Z,11.75
2023-02-19T05:54:22.414Z,13.52
2023-02-19T05:57:25.646Z,13.17
2023-02-19T06:00:28.778Z,12.95
2023-02-19T06:03:32.487Z,9.80
2023-02-19T06:06:36.193Z,14.17
2023-02-19T06:09:39.121Z,14.63
2023-02-19T06:12:43.088Z,21.45
2023-02-19T06:15:46.676Z,9.38
2023-02-19T06:18:50.802Z,14.90
2023-02-19T06:21:53.691Z,18.60
2023-02-19T06:24:57.652Z,14.00
2023-02-19T06:28:00.983Z,16.10
2023-02-19T06:31:06.361Z,9.82
2023-02-19T06:34:09.285Z,9.75
2023-02-19T06:37:12.514Z,11.57
2023-02-19T06:40:15.799Z,12.88
2023-02-19T06:43:19.734Z,10.32
2023-02-19T06:46:23.421Z,9.07
2023-02-19T06:49:27.683Z,22.52
2023-02-19T06:52:31.297Z,33.95
2023-02-19T06:55:34.603Z,16.80
2023-02-19T06:58:38.141Z,14.90
2023-02-19T07:01:41.971Z,21.38
2023-02-19T07:04:45.603Z,14.88
2023-02-19T07:07:49.731Z,18.07
2023-02-19T07:10:59.460Z,16.35
2023-02-19T07:14:04.687Z,15.23
2023-02-19T07:17:08.356Z,13.10
2023-02-19T07:20:12.758Z,21.35
2023-02-19T07:23:15.727Z,11.73
2023-02-19T07:26:20.230Z,8.23
2023-02-19T07:29:23.905Z,25.40
2023-02-19T07:32:27.723Z,17.60
2023-02-19T07:35:31.452Z,12.52
2023-02-19T07:38:34.511Z,16.33
2023-02-19T07:41:37.529Z,8.65
2023-02-19T07:44:42.367Z,3.83
2023-02-19T07:47:45.286Z,12.65
2023-02-19T07:50:59.770Z,11.40
2023-02-19T07:54:02.807Z,9.45
2023-02-19T07:57:05.850Z,18.48
2023-02-19T08:00:09.529Z,24.53
2023-02-19T08:03:18.056Z,31.48
2023-02-19T08:06:22.116Z,19.45
2023-02-19T08:09:25.074Z,16.00
2023-02-19T08:12:57.884Z,26.10
2023-02-19T08:16:16.927Z,14.00
2023-02-19T08:19:22.376Z,22.23
2023-02-19T08:22:25.369Z,16.63
2023-02-19T08:25:28.537Z,25.85
2023-02-19T08:28:32.606Z,19.85
2023-02-19T08:31:36.375Z,11.37
2023-02-19T08:34:39.329Z,14.18
2023-02-19T08:37:42.367Z,15.07
2023-02-19T08:40:45.627Z,19.70
2023-02-19T08:43:48.469Z,23.92
2023-02-19T08:46:52.068Z,26.27
2023-02-19T08:49:54.941Z,19.75
2023-02-19T08:53:00.561Z,21.38
2023-02-19T08:56:15.323Z,27.30
2023-02-19T08:59:20.071Z,29.33
2023-02-19T09:02:27.243Z,48.93
2023-02-19T09:05:30.160Z,60.50
2023-02-19T09:08:33.864Z,47.33
2023-02-19T09:11:40.188Z,32.70
2023-02-19T09:14:43.819Z,27.55
2023-02-19T09:17:51.781Z,41.08
2023-02-19T09:20:54.689Z,34.53
2023-02-19T09:23:57.585Z,56.65
2023-02-19T09:27:01.258Z,52.00
2023-02-19T09:30:04.894Z,57.53
2023-02-19T09:33:08.635Z,68.37
2023-02-19T09:36:15.831Z,63.97
2023-02-19T09:39:19.201Z,60.15
2023-02-19T09:42:27.894Z,80.83
2023-02-19T09:45:31.061Z,79.13
2023-02-19T09:48:34.688Z,67.32
2023-02-19T09:55:38.479Z,52.80
2023-02-19T09:58:50.700Z,60.95
2023-02-19T10:02:24.537Z,53.00
2023-02-19T10:05:28.424Z,79.53
2023-02-19T10:08:34.627Z,90.22
2023-02-19T10:11:38.372Z,84.05
2023-02-19T10:14:48.048Z,64.03
2023-02-19T10:17:50.973Z,129.65
2023-02-19T10:20:54.260Z,229.25
2023-02-19T10:24:02.078Z,285.55
2023-02-19T10:27:12.078Z,176.65
2023-02-19T10:30:21.983Z,56.17
2023-02-19T10:33:27.219Z,89.43
2023-02-19T10:36:33.445Z,78.93
2023-02-19T10:39:47.335Z,83.47
2023-02-19T10:42:54.300Z,96.82
2023-02-19T10:45:59.118Z,121.17
2023-02-19T10:54:17.264Z,69.38
2023-02-19T10:57:30.490Z,68.07
2023-02-19T11:00:34.257Z,108.40
2023-02-19T11:03:38.305Z,125.18
2023-02-19T11:06:42.065Z,91.70
2023-02-19T11:09:49.702Z,86.90
2023-02-19T11:12:56.334Z,55.53
2023-02-19T11:16:01.580Z,114.90
2023-02-19T11:19:05.571Z,75.83
2023-02-19T11:22:39.338Z,70.47
2023-02-19T11:25:49.273Z,63.13
2023-02-19T11:29:03.469Z,47.15
2023-02-19T11:32:21.500Z,57.80
2023-02-19T11:35:26.192Z,34.38
2023-02-19T11:38:30.518Z,75.13
2023-02-19T11:41:37.267Z,90.57
2023-02-19T11:45:18.028Z,157.57
2023-02-19T11:48:30.000Z,88.80
2023-02-19T11:51:56.548Z,85.97
2023-02-19T11:55:12.067Z,154.82
2023-02-19T11:58:41.525Z,176.40
2023-02-19T12:02:12.080Z,200.48
2023-02-19T12:05:38.647Z,182.80
2023-02-19T12:09:04.305Z,106.55
2023-02-19T12:12:29.279Z,51.50
2023-02-19T12:19:45.430Z,83.10
2023-02-19T12:23:27.975Z,88.22
2023-02-19T12:26:51.376Z,76.17
2023-02-19T12:30:26.546Z,100.88
2023-02-19T12:33:47.530Z,82.07
2023-02-19T12:36:50.968Z,58.85
2023-02-19T12:40:19.080Z,33.53
2023-02-19T12:43:25.443Z,31.70
2023-02-19T12:46:39.497Z,49.78
2023-02-19T12:49:49.702Z,60.67
2023-02-19T12:53:03.528Z,38.08
2023-02-19T12:56:15.600Z,50.72
2023-02-19T12:59:44.515Z,54.20
2023-02-19T13:02:55.041Z,25.88
2023-02-19T13:06:26.517Z,37.42
2023-02-19T13:09:36.017Z,57.08
2023-02-19T13:12:45.100Z,57.97
2023-02-19T13:15:53.478Z,35.67
2023-02-19T13:19:02.941Z,25.38
2023-02-19T13:23:13.069Z,44.03
2023-02-19T13:26:56.086Z,54.35
2023-02-19T13:30:10.305Z,54.45
2023-02-19T13:33:26.983Z,29.23
2023-02-19T13:36:31.410Z,46.72
2023-02-19T13:39:35.177Z,30.92
2023-02-19T13:42:39.940Z,56.20
2023-02-19T13:45:46.470Z,52.58
2023-02-19T13:48:49.839Z,34.05
2023-02-19T13:51:58.423Z,36.13
2023-02-19T13:55:41.549Z,8.87
2023-02-19T13:59:12.962Z,32.05
2023-02-19T14:02:22.817Z,33.90
2023-02-19T14:06:02.444Z,25.83
2023-02-19T14:09:35.102Z,25.35
2023-02-19T14:12:38.568Z,45.20
2023-02-19T14:15:49.895Z,40.40
2023-02-19T14:18:53.550Z,17.50
2023-02-19T14:21:56.628Z,12.15
2023-02-19T14:25:00.127Z,19.15
2023-02-19T14:28:30.606Z,37.20
2023-02-19T14:31:37.716Z,28.27
2023-02-19T14:34:41.331Z,21.90
2023-02-19T14:37:46.663Z,54.70
2023-02-19T14:40:51.406Z,49.35
2023-02-19T14:43:58.109Z,23.67
2023-02-19T14:47:05.783Z,41.13
2023-02-19T14:50:14.078Z,24.27
2023-02-19T14:53:20.687Z,69.00
2023-02-19T14:56:33.833Z,33.20
2023-02-19T14:59:37.938Z,61.67
2023-02-19T15:02:44.110Z,32.28
2023-02-19T15:05:47.133Z,49.15
2023-02-19T15:08:55.320Z,26.43
2023-02-19T15:11:59.581Z,40.15
2023-02-19T15:15:05.405Z,45.25
2023-02-19T15:18:08.936Z,41.70
2023-02-19T15:21:25.257Z,44.80
2023-02-19T15:24:29.126Z,33.35
2023-02-19T15:27:35.992Z,38.58
2023-02-19T15:30:40.079Z,37.60
2023-02-19T15:33:50.994Z,42.75
2023-02-19T15:37:07.468Z,42.67
2023-02-19T15:40:15.687Z,34.00
2023-02-19T15:43:40.587Z,49.08
2023-02-19T15:46:45.519Z,54.58
2023-02-19T15:50:07.032Z,32.80
2023-02-19T15:53:16.657Z,8.07
2023-02-19T15:56:28.956Z,22.83
2023-02-19T15:59:52.144Z,42.47
2023-02-19T16:02:55.736Z,13.40
2023-02-19T16:06:04.273Z,8.40
2023-02-19T16:09:20.872Z,8.32
2023-02-19T16:12:27.056Z,6.43
2023-02-19T16:15:32.457Z,7.57
2023-02-19T16:18:36.223Z,15.75
2023-02-19T16:21:39.951Z,10.20
2023-02-19T16:24:46.984Z,85.07
2023-02-19T16:27:50.594Z,63.33
2023-02-19T16:31:01.953Z,57.30
2023-02-19T16:34:19.212Z,28.30
2023-02-19T16:37:41.399Z,6.82
2023-02-19T16:40:55.789Z,29.42
2023-02-19T16:43:59.563Z,52.73
2023-02-19T16:47:17.272Z,21.40
2023-02-19T16:50:25.961Z,15.85
2023-02-19T16:53:29.977Z,10.82
2023-02-19T16:56:33.914Z,8.10
2023-02-19T16:59:37.583Z,17.13
2023-02-19T17:02:41.665Z,21.98
2023-02-19T17:05:45.681Z,9.50
2023-02-19T17:08:49.385Z,21.65
2023-02-19T17:11:52.355Z,12.40
2023-02-19T17:14:56.266Z,11.27
2023-02-19T17:17:59.932Z,25.65
2023-02-19T17:21:30.085Z,11.60
2023-02-19T17:24:33.095Z,27.70
2023-02-19T17:27:37.345Z,17.15
2023-02-19T17:30:41.002Z,11.23
2023-02-19T17:33:45.014Z,12.68
2023-02-19T17:36:48.994Z,8.17
2023-02-19T17:39:51.898Z,8.57
2023-02-19T17:42:55.939Z,10.70
2023-02-19T17:45:59.600Z,11.07
2023-02-19T17:49:03.244Z,5.55
2023-02-19T17:52:06.449Z,25.25
2023-02-19T17:55:10.270Z,16.83
2023-02-19T17:58:13.910Z,3.22
2023-02-19T18:01:17.970Z,3.25
2023-02-19T18:04:21.235Z,6.18
2023-02-19T18:07:24.233Z,4.63
2023-02-19T18:10:27.908Z,3.33
2023-02-19T18:13:31.515Z,15.95
2023-02-19T18:16:35.116Z,10.70
2023-02-19T18:19:38.663Z,18.33
2023-02-19T18:22:43.561Z,32.00
2023-02-19T18:25:47.649Z,124.90
2023-02-19T18:28:51.520Z,40.35
2023-02-19T18:31:55.254Z,63.83
2023-02-19T18:35:00.946Z,111.63
2023-02-19T18:38:03.794Z,79.67
2023-02-19T18:41:07.716Z,71.75
2023-02-19T18:44:10.592Z,72.68
2023-02-19T18:47:13.801Z,129.47
2023-02-19T18:50:19.219Z,152.35
2023-02-19T18:53:23.298Z,102.60
2023-02-19T18:56:26.245Z,53.28
2023-02-19T18:59:30.183Z,86.68
2023-02-19T19:02:48.318Z,69.00
2023-02-19T19:05:52.419Z,55.70
2023-02-19T19:08:56.008Z,74.90
2023-02-19T19:11:59.278Z,108.57
2023-02-19T19:15:02.979Z,70.45
2023-02-19T19:18:06.697Z,93.17
2023-02-19T19:21:10.745Z,86.55
2023-02-19T19:24:14.954Z,88.20
2023-02-19T19:27:21.883Z,77.90
2023-02-19T19:30:26.150Z,109.85
2023-02-19T19:33:30.564Z,93.07
2023-02-19T19:36:33.506Z,72.78
2023-02-19T19:39:37.292Z,68.53
2023-02-19T19:42:42.496Z,73.90
2023-02-19T19:45:47.333Z,123.78
2023-02-19T19:48:53.722Z,66.00
2023-02-19T19:52:01.481Z,84.43
2023-02-19T19:55:06.113Z,108.32
2023-02-19T19:58:09.771Z,60.55
2023-02-19T20:01:13.606Z,158.85
2023-02-19T20:04:20.653Z,56.53
2023-02-19T20:07:24.606Z,69.72
2023-02-19T20:10:27.643Z,58.70
2023-02-19T20:13:33.154Z,93.50
2023-02-19T20:16:36.133Z,104.20
2023-02-19T20:19:39.393Z,89.17
2023-02-19T20:22:43.279Z,66.05
2023-02-19T20:25:46.969Z,43.05
2023-02-19T20:28:50.041Z,89.30
2023-02-19T20:31:53.371Z,40.60
2023-02-19T20:34:56.308Z,70.25
2023-02-19T20:37:59.871Z,90.95
2023-02-19T20:41:04.279Z,76.53
2023-02-19T20:44:08.222Z,60.58
2023-02-19T20:47:12.084Z,25.85
2023-02-19T20:50:19.630Z,82.93
2023-02-19T20:53:22.825Z,50.90
2023-02-19T20:56:26.754Z,62.70
2023-02-19T20:59:35.651Z,77.20
2023-02-19T21:02:39.090Z,107.90
2023-02-19T21:05:43.496Z,61.55
2023-02-19T21:08:47.149Z,90.05
2023-02-19T21:11:51.158Z,114.13
2023-02-19T21:14:54.165Z,79.50
2023-02-19T21:17:57.752Z,99.55
2023-02-19T21:21:01.614Z,96.47
2023-02-19T21:24:06.594Z,55.28
2023-02-19T21:27:10.506Z,81.68
2023-02-19T21:30:13.670Z,21.50
2023-02-19T21:33:17.668Z,49.58
2023-02-19T21:36:20.739Z,48.22
2023-02-19T21:39:26.448Z,61.63
2023-02-19T21:42:29.323Z,47.17
2023-02-19T21:45:32.621Z,44.67
2023-02-19T21:48:36.193Z,80.78
2023-02-19T21:51:42.366Z,31.73
2023-02-19T21:54:45.284Z,84.55
2023-02-19T21:57:48.879Z,93.35
2023-02-19T22:00:54.382Z,60.97
2023-02-19T22:03:57.779Z,99.65
2023-02-19T22:07:01.428Z,78.57
2023-02-19T22:10:06.496Z,58.67
2023-02-19T22:13:10.803Z,91.60
2023-02-19T22:16:15.392Z,69.00
2023-02-19T22:19:18.387Z,47.63
2023-02-19T22:22:22.102Z,37.73
2023-02-19T22:25:25.028Z,42.65
2023-02-19T22:28:27.914Z,47.35
2023-02-19T22:31:33.799Z,131.13
2023-02-19T22:34:43.759Z,95.65
2023-02-19T22:37:47.343Z,57.05
2023-02-19T22:40:50.324Z,61.33
2023-02-19T22:43:56.722Z,72.37
2023-02-19T22:46:59.790Z,96.03
2023-02-19T22:50:04.243Z,50.38
2023-02-19T22:53:07.528Z,62.53
2023-02-19T22:56:10.812Z,42.92
2023-02-19T22:59:13.783Z,50.47
2023-02-19T23:02:17.678Z,84.95
2023-02-19T23:05:20.639Z,22.38
2023-02-19T23:08:24.793Z,57.65
2023-02-19T23:11:30.545Z,75.00
2023-02-19T23:14:34.511Z,159.00
2023-02-19T23:17:38.508Z,81.55
2023-02-19T23:20:41.756Z,35.13
2023-02-19T23:23:45.983Z,99.50
2023-02-19T23:26:53.657Z,113.95
2023-02-19T23:29:56.781Z,83.68
2023-02-19T23:33:00.623Z,92.13
2023-02-19T23:36:04.935Z,41.25
2023-02-19T23:39:11.484Z,57.30
2023-02-19T23:42:17.559Z,56.08
2023-02-19T23:45:21.534Z,47.67
2023-02-19T23:48:25.167Z,152.13
2023-02-19T23:51:29.158Z,82.40
2023-02-19T23:54:32.234Z,89.50
2023-02-19T23:57:36.294Z,101.45
